createdAt,value
2022-12-17T00:00:27.453Z,-0.20
2022-12-17T00:03:17.681Z,-0.20
2022-12-17T00:06:03.321Z,-0.20
2022-12-17T00:08:52.013Z,-0.30
2022-12-17T00:11:37.726Z,-0.30
2022-12-17T00:14:24.405Z,-0.30
2022-12-17T00:17:09.956Z,-0.40
2022-12-17T00:19:56.347Z,-0.30
2022-12-17T00:22:42.325Z,-0.20
2022-12-17T00:25:28.090Z,-0.20
2022-12-17T00:28:13.434Z,-0.30
2022-12-17T00:30:59.089Z,-0.20
2022-12-17T00:33:44.817Z,-0.10
2022-12-17T00:36:30.207Z,-0.10
2022-12-17T00:39:17.792Z,0.00
2022-12-17T00:42:04.084Z,0.10
2022-12-17T00:44:49.577Z,0.00
2022-12-17T00:47:34.874Z,-0.20
2022-12-17T00:50:20.153Z,-0.30
2022-12-17T00:53:06.641Z,-0.40
2022-12-17T00:55:51.992Z,-0.30
2022-12-17T00:58:37.499Z,-0.20
2022-12-17T01:01:23.256Z,-0.10
2022-12-17T01:04:08.748Z,-0.10
2022-12-17T01:06:54.229Z,-0.30
2022-12-17T01:09:42.509Z,-0.30
2022-12-17T01:12:28.364Z,-0.20
2022-12-17T01:15:14.151Z,-0.10
2022-12-17T01:17:59.597Z,-0.30
2022-12-17T01:20:45.052Z,-0.30
2022-12-17T01:23:30.422Z,-0.20
2022-12-17T01:26:17.013Z,-0.10
2022-12-17T01:29:02.525Z,-0.10
2022-12-17T01:31:47.938Z,-0.20
2022-12-17T01:34:35.372Z,-0.40
2022-12-17T01:37:22.374Z,-0.30
2022-12-17T01:40:08.926Z,-0.20
2022-12-17T01:42:59.617Z,-0.20
2022-12-17T01:45:52.430Z,-0.20
2022-12-17T01:48:46.451Z,-0.40
2022-12-17T01:51:33.934Z,-0.50
2022-12-17T01:54:20.874Z,-0.50
2022-12-17T01:57:06.872Z,-0.30
2022-12-17T02:00:14.180Z,-0.30
2022-12-17T02:03:02.122Z,-0.30
2022-12-17T02:06:47.032Z,-0.40
2022-12-17T02:09:46.815Z,-0.50
2022-12-17T02:12:50.975Z,-0.60
2022-12-17T02:15:41.401Z,-0.50
2022-12-17T02:18:38.322Z,-0.60
2022-12-17T02:21:26.136Z,-0.70
2022-12-17T02:24:49.815Z,-0.60
2022-12-17T02:27:36.890Z,-0.50
2022-12-17T02:30:25.852Z,-0.50
2022-12-17T02:33:12.749Z,-0.60
2022-12-17T02:36:09.764Z,-0.60
2022-12-17T02:38:58.052Z,-0.70
2022-12-17T02:41:59.861Z,-0.60
2022-12-17T02:44:59.236Z,-0.60
2022-12-17T02:47:47.193Z,-0.60
2022-12-17T02:50:33.601Z,-0.50
2022-12-17T02:53:20.979Z,-0.40
2022-12-17T02:56:08.420Z,-0.40
2022-12-17T02:58:56.287Z,-0.40
2022-12-17T03:01:41.952Z,-0.40
2022-12-17T03:04:27.240Z,-0.50
2022-12-17T03:07:12.876Z,-0.60
2022-12-17T03:10:01.151Z,-0.60
2022-12-17T03:12:48.147Z,-0.70
2022-12-17T03:15:34.951Z,-0.70
2022-12-17T03:18:20.412Z,-0.60
2022-12-17T03:21:05.618Z,-0.60
2022-12-17T03:23:52.011Z,-0.50
2022-12-17T03:26:37.175Z,-0.50
2022-12-17T03:29:22.656Z,-0.40
2022-12-17T03:32:07.917Z,-0.40
2022-12-17T03:34:53.173Z,-0.50
2022-12-17T03:37:38.876Z,-0.60
2022-12-17T03:40:26.951Z,-0.60
2022-12-17T03:43:13.420Z,-0.70
2022-12-17T03:45:58.852Z,-0.70
2022-12-17T03:48:45.705Z,-0.70
2022-12-17T03:51:31.085Z,-0.70
2022-12-17T03:54:16.520Z,-0.80
2022-12-17T03:57:02.190Z,-0.80
2022-12-17T03:59:47.753Z,-0.90
2022-12-17T04:02:33.338Z,-1.00
2022-12-17T04:05:20.678Z,-0.90
2022-12-17T04:08:06.575Z,-0.80
2022-12-17T04:10:52.815Z,-0.70
2022-12-17T04:13:41.302Z,-0.90
2022-12-17T04:16:28.292Z,-1.00
2022-12-17T04:19:15.708Z,-1.00
2022-12-17T04:22:01.998Z,-1.00
2022-12-17T04:24:47.496Z,-1.10
2022-12-17T04:27:32.866Z,-1.10
2022-12-17T04:30:18.216Z,-1.10
2022-12-17T04:33:03.552Z,-1.20
2022-12-17T04:35:48.806Z,-1.20
2022-12-17T04:38:34.168Z,-1.20
2022-12-17T04:41:20.464Z,-1.10
2022-12-17T04:44:05.831Z,-1.00
2022-12-17T04:46:54.917Z,-1.00
2022-12-17T04:49:40.315Z,-1.10
2022-12-17T04:52:25.871Z,-1.20
2022-12-17T04:55:11.345Z,-1.20
2022-12-17T04:57:56.665Z,-1.20
2022-12-17T05:00:42.341Z,-1.00
2022-12-17T05:03:34.245Z,-0.90
2022-12-17T05:06:21.379Z,-1.00
2022-12-17T05:09:07.839Z,-1.10
2022-12-17T05:11:53.130Z,-1.20
2022-12-17T05:14:39.436Z,-1.20
2022-12-17T05:17:25.295Z,-1.20
2022-12-17T05:20:10.705Z,-1.20
2022-12-17T05:22:56.162Z,-1.20
2022-12-17T05:25:41.552Z,-1.20
2022-12-17T05:28:26.748Z,-1.20
2022-12-17T05:31:13.999Z,-1.10
2022-12-17T05:34:00.816Z,-1.10
2022-12-17T05:36:47.271Z,-1.10
2022-12-17T05:39:52.830Z,-1.20
2022-12-17T05:42:38.398Z,-1.20
2022-12-17T05:45:24.291Z,-1.10
2022-12-17T05:48:09.861Z,-1.20
2022-12-17T05:50:57.330Z,-1.20
2022-12-17T05:53:42.694Z,-1.20
2022-12-17T05:56:27.950Z,-1.10
2022-12-17T05:59:13.440Z,-1.10
2022-12-17T06:01:58.822Z,-1.10
2022-12-17T06:04:44.240Z,-1.20
2022-12-17T06:07:29.795Z,-1.10
2022-12-17T06:10:15.111Z,-1.10
2022-12-17T06:13:02.646Z,-1.10
2022-12-17T06:15:47.924Z,-1.20
2022-12-17T06:18:33.583Z,-1.20
2022-12-17T06:21:20.819Z,-1.20
2022-12-17T06:24:07.232Z,-1.20
2022-12-17T06:26:54.685Z,-1.20
2022-12-17T06:29:39.908Z,-1.30
2022-12-17T06:32:25.511Z,-1.30
2022-12-17T06:35:10.820Z,-1.30
2022-12-17T06:37:57.188Z,-1.20
2022-12-17T06:40:43.825Z,-1.30
2022-12-17T06:43:29.191Z,-1.30
2022-12-17T06:46:14.680Z,-1.30
2022-12-17T06:49:00.096Z,-1.30
2022-12-17T06:51:45.267Z,-1.30
2022-12-17T06:54:30.574Z,-1.30
2022-12-17T06:57:15.917Z,-1.50
2022-12-17T07:00:03.641Z,-1.50
2022-12-17T07:02:49.031Z,-1.50
2022-12-17T07:05:35.542Z,-1.50
2022-12-17T07:08:20.881Z,-1.40
2022-12-17T07:11:06.219Z,-1.30
2022-12-17T07:13:52.574Z,-1.20
2022-12-17T07:16:38.104Z,-1.20
2022-12-17T07:19:27.432Z,-1.10
2022-12-17T07:22:14.104Z,-1.10
2022-12-17T07:24:59.555Z,-1.30
2022-12-17T07:27:45.949Z,-1.40
2022-12-17T07:30:31.738Z,-1.40
2022-12-17T07:33:20.191Z,-1.40
2022-12-17T07:36:05.455Z,-1.40
2022-12-17T07:38:51.485Z,-1.40
2022-12-17T07:41:37.343Z,-1.40
2022-12-17T07:44:24.433Z,-1.40
2022-12-17T07:47:10.881Z,-1.40
2022-12-17T07:49:56.738Z,-1.40
2022-12-17T07:52:42.484Z,-1.50
2022-12-17T07:55:28.012Z,-1.50
2022-12-17T07:58:21.528Z,-1.50
2022-12-17T08:01:08.265Z,-1.50
2022-12-17T08:03:53.639Z,-1.40
2022-12-17T08:06:39.648Z,-1.40
2022-12-17T08:09:25.219Z,-1.40
2022-12-17T08:12:11.672Z,-1.30
2022-12-17T08:14:56.942Z,-1.20
2022-12-17T08:17:42.375Z,-1.20
2022-12-17T08:20:29.799Z,-1.20
2022-12-17T08:23:25.129Z,-1.20
2022-12-17T08:26:10.616Z,-1.10
2022-12-17T08:28:56.187Z,-1.10
2022-12-17T08:31:43.711Z,-1.20
2022-12-17T08:34:29.199Z,-1.30
2022-12-17T08:37:14.673Z,-1.30
2022-12-17T08:40:02.992Z,-1.30
2022-12-17T08:42:48.479Z,-1.20
2022-12-17T08:45:34.004Z,-1.20
2022-12-17T08:48:25.940Z,-1.30
2022-12-17T08:51:13.278Z,-1.30
2022-12-17T08:54:02.231Z,-1.20
2022-12-17T08:56:47.562Z,-1.20
2022-12-17T08:59:38.009Z,-1.20
2022-12-17T09:02:23.907Z,-1.10
2022-12-17T09:05:09.530Z,-1.10
2022-12-17T09:08:07.093Z,-1.00
2022-12-17T09:10:52.711Z,-0.80
2022-12-17T09:13:38.603Z,-0.90
2022-12-17T09:16:24.743Z,-0.90
2022-12-17T09:19:10.484Z,-0.70
2022-12-17T09:21:56.674Z,-0.60
2022-12-17T09:24:42.660Z,-0.30
2022-12-17T09:27:27.974Z,-0.30
2022-12-17T09:30:13.733Z,-0.30
2022-12-17T09:32:59.716Z,-0.50
2022-12-17T09:35:46.070Z,-0.90
2022-12-17T09:38:37.618Z,-1.00
2022-12-17T09:41:46.680Z,-0.90
2022-12-17T09:44:45.718Z,-0.90
2022-12-17T09:47:53.502Z,-0.90
2022-12-17T09:50:39.764Z,-0.90
2022-12-17T09:53:58.300Z,-0.90
2022-12-17T09:56:49.340Z,-0.80
2022-12-17T09:59:45.460Z,-0.70
2022-12-17T10:03:00.669Z,-0.60
2022-12-17T10:05:49.475Z,-0.50
2022-12-17T10:08:39.199Z,-0.50
2022-12-17T10:11:42.759Z,-0.50
2022-12-17T10:14:35.849Z,-0.60
2022-12-17T10:17:25.739Z,-0.50
2022-12-17T10:20:15.134Z,-0.40
2022-12-17T10:23:07.469Z,-0.30
2022-12-17T10:25:54.636Z,-0.20
2022-12-17T10:28:44.130Z,0.20
2022-12-17T10:31:40.887Z,0.90
2022-12-17T10:34:33.307Z,1.50
2022-12-17T10:37:20.700Z,1.70
2022-12-17T10:40:19.899Z,1.90
2022-12-17T10:43:07.628Z,2.50
2022-12-17T10:45:55.212Z,2.80
2022-12-17T10:48:46.455Z,2.90
2022-12-17T10:51:49.984Z,3.00
2022-12-17T10:54:50.424Z,3.10
2022-12-17T10:57:56.044Z,3.10
2022-12-17T11:00:52.629Z,3.10
2022-12-17T11:03:43.861Z,3.10
2022-12-17T11:06:40.472Z,3.30
2022-12-17T11:09:37.104Z,3.60
2022-12-17T11:12:30.811Z,3.50
2022-12-17T11:15:23.461Z,3.90
2022-12-17T11:18:11.590Z,3.80
2022-12-17T11:21:24.304Z,3.80
2022-12-17T11:24:11.785Z,3.90
2022-12-17T11:27:00.799Z,4.10
2022-12-17T11:29:47.609Z,4.30
2022-12-17T11:32:50.698Z,4.80
2022-12-17T11:36:04.715Z,5.00
2022-12-17T11:38:56.973Z,4.90
2022-12-17T11:42:01.232Z,4.50
2022-12-17T11:45:18.014Z,4.50
2022-12-17T11:48:19.818Z,4.60
2022-12-17T11:51:21.769Z,3.90
2022-12-17T11:54:40.726Z,3.70
2022-12-17T11:57:41.761Z,3.80
2022-12-17T12:00:42.390Z,4.30
2022-12-17T12:03:54.762Z,4.80
2022-12-17T12:06:52.512Z,5.10
2022-12-17T12:09:52.220Z,6.40
2022-12-17T12:13:02.500Z,6.70
2022-12-17T12:15:59.520Z,6.50
2022-12-17T12:19:17.746Z,5.60
2022-12-17T12:22:19.009Z,4.90
2022-12-17T12:25:31.281Z,4.50
2022-12-17T12:28:32.512Z,4.30
2022-12-17T12:31:28.912Z,3.70
2022-12-17T12:34:24.836Z,3.40
2022-12-17T12:37:11.602Z,3.20
2022-12-17T12:40:15.167Z,2.80
2022-12-17T12:43:19.335Z,2.70
2022-12-17T12:46:14.543Z,2.50
2022-12-17T12:49:22.838Z,2.40
2022-12-17T12:52:10.894Z,2.30
2022-12-17T12:55:05.792Z,2.30
2022-12-17T12:58:02.432Z,2.50
2022-12-17T13:00:52.704Z,2.40
2022-12-17T13:03:45.964Z,2.30
2022-12-17T13:06:33.888Z,2.20
2022-12-17T13:09:21.741Z,2.20
2022-12-17T13:12:00.683Z,2.30
2022-12-17T13:14:36.439Z,2.30
2022-12-17T13:17:34.656Z,2.30
2022-12-17T13:20:23.505Z,2.20
2022-12-17T13:23:04.892Z,2.20
2022-12-17T13:25:34.091Z,2.20
2022-12-17T13:28:00.949Z,2.20
2022-12-17T13:30:37.757Z,2.30
2022-12-17T13:33:32.748Z,2.30
2022-12-17T13:36:19.105Z,2.30
2022-12-17T13:38:57.035Z,2.30
2022-12-17T13:41:43.073Z,2.30
2022-12-17T13:44:31.575Z,2.30
2022-12-17T13:46:58.743Z,2.30
2022-12-17T13:49:28.165Z,2.30
2022-12-17T13:52:20.583Z,2.30
2022-12-17T13:54:47.658Z,2.20
2022-12-17T13:57:17.379Z,2.20
2022-12-17T14:00:02.442Z,2.10
2022-12-17T14:02:42.458Z,2.10
2022-12-17T14:05:26.763Z,2.00
2022-12-17T14:07:55.192Z,2.00
2022-12-17T14:10:22.315Z,2.00
2022-12-17T14:12:50.042Z,1.90
2022-12-17T14:15:29.974Z,2.00
2022-12-17T14:17:58.907Z,1.90
2022-12-17T14:20:28.800Z,1.90
2022-12-17T14:23:02.677Z,1.90
2022-12-17T14:25:36.353Z,1.90
2022-12-17T14:28:07.006Z,1.90
2022-12-17T14:30:56.350Z,2.00
2022-12-17T14:33:30.760Z,2.00
2022-12-17T14:36:05.209Z,2.00
2022-12-17T14:38:48.337Z,1.90
2022-12-17T14:41:35.273Z,1.80
2022-12-17T14:44:04.926Z,1.80
2022-12-17T14:46:34.134Z,1.70
2022-12-17T14:49:05.901Z,1.70
2022-12-17T14:51:38.555Z,1.70
2022-12-17T14:54:06.249Z,1.70
2022-12-17T14:56:33.359Z,1.70
2022-12-17T14:59:00.367Z,1.70
2022-12-17T15:01:27.528Z,1.60
2022-12-17T15:03:57.335Z,1.60
2022-12-17T15:06:28.433Z,1.70
2022-12-17T15:08:58.975Z,1.70
2022-12-17T15:11:25.972Z,1.60
2022-12-17T15:13:57.003Z,1.60
2022-12-17T15:16:29.169Z,1.50
2022-12-17T15:18:57.677Z,1.60
2022-12-17T15:21:26.893Z,1.40
2022-12-17T15:23:54.153Z,1.30
2022-12-17T15:26:21.391Z,1.20
2022-12-17T15:28:49.643Z,1.20
2022-12-17T15:31:24.457Z,1.20
2022-12-17T15:33:53.809Z,1.20
2022-12-17T15:36:20.693Z,1.20
2022-12-17T15:38:49.056Z,1.20
2022-12-17T15:41:37.116Z,1.00
2022-12-17T15:44:06.023Z,1.10
2022-12-17T15:46:43.577Z,1.00
2022-12-17T15:49:16.531Z,0.90
2022-12-17T15:51:45.292Z,0.80
2022-12-17T15:54:14.235Z,0.90
2022-12-17T15:56:43.398Z,0.90
2022-12-17T15:59:10.629Z,0.90
2022-12-17T16:01:38.750Z,1.00
2022-12-17T16:04:10.419Z,1.00
2022-12-17T16:06:41.117Z,1.00
2022-12-17T16:09:08.326Z,0.90
2022-12-17T16:11:38.743Z,0.90
2022-12-17T16:14:07.305Z,1.00
2022-12-17T16:16:34.826Z,0.90
2022-12-17T16:19:02.781Z,0.80
2022-12-17T16:21:30.740Z,0.80
2022-12-17T16:23:57.985Z,0.80
2022-12-17T16:26:27.129Z,0.90
2022-12-17T16:28:53.980Z,0.80
2022-12-17T16:31:22.254Z,0.80
2022-12-17T16:33:49.746Z,0.70
2022-12-17T16:36:19.526Z,0.60
2022-12-17T16:38:49.314Z,0.60
2022-12-17T16:41:17.179Z,0.50
2022-12-17T16:43:44.645Z,0.50
2022-12-17T16:46:46.263Z,0.50
2022-12-17T16:49:19.326Z,0.50
2022-12-17T16:51:48.394Z,0.60
2022-12-17T16:54:21.963Z,0.50
2022-12-17T16:56:50.559Z,0.50
2022-12-17T16:59:18.431Z,0.50
2022-12-17T17:01:48.099Z,0.50
2022-12-17T17:04:16.792Z,0.50
2022-12-17T17:06:47.577Z,0.50
2022-12-17T17:09:15.925Z,0.60
2022-12-17T17:11:46.987Z,0.60
2022-12-17T17:14:18.470Z,0.60
2022-12-17T17:16:45.948Z,0.60
2022-12-17T17:19:12.808Z,0.60
2022-12-17T17:21:47.543Z,0.50
2022-12-17T17:24:21.120Z,0.60
2022-12-17T17:26:48.552Z,0.70
2022-12-17T17:29:15.382Z,0.70
2022-12-17T17:34:34.087Z,0.80
2022-12-17T17:37:01.244Z,0.80
2022-12-17T17:39:31.833Z,0.80
2022-12-17T17:42:01.831Z,0.80
2022-12-17T17:44:29.863Z,0.70
2022-12-17T17:46:57.527Z,0.60
2022-12-17T17:49:25.113Z,0.70
2022-12-17T17:54:39.875Z,0.50
2022-12-17T17:57:07.396Z,0.60
2022-12-17T17:59:34.762Z,0.60
2022-12-17T18:02:03.645Z,0.70
2022-12-17T18:04:31.906Z,0.50
2022-12-17T18:09:47.072Z,0.20
2022-12-17T18:12:32.838Z,0.20
2022-12-17T18:15:18.596Z,0.30
2022-12-17T18:17:51.455Z,0.20
2022-12-17T18:20:19.028Z,0.20
2022-12-17T18:22:46.612Z,0.20
2022-12-17T18:25:16.683Z,0.30
2022-12-17T18:27:44.152Z,0.40
2022-12-17T18:30:16.616Z,0.40
2022-12-17T18:32:44.984Z,0.30
2022-12-17T18:35:13.332Z,0.20
2022-12-17T18:37:40.808Z,0.30
2022-12-17T18:40:09.452Z,0.40
2022-12-17T18:42:54.917Z,0.30
2022-12-17T18:45:22.341Z,0.30
2022-12-17T18:47:51.354Z,0.40
2022-12-17T18:50:21.049Z,0.30
2022-12-17T18:52:48.021Z,0.20
2022-12-17T18:55:15.119Z,0.10
2022-12-17T18:57:48.257Z,0.00
2022-12-17T19:00:15.342Z,0.10
2022-12-17T19:02:44.266Z,0.20
2022-12-17T19:05:12.154Z,0.30
2022-12-17T19:07:40.052Z,0.40
2022-12-17T19:10:07.814Z,0.40
2022-12-17T19:12:35.117Z,0.30
2022-12-17T19:15:02.084Z,0.30
2022-12-17T19:17:28.904Z,0.30
2022-12-17T19:19:58.518Z,0.30
2022-12-17T19:22:29.707Z,0.40
2022-12-17T19:24:57.173Z,0.20
2022-12-17T19:27:24.615Z,0.20
2022-12-17T19:29:54.979Z,0.10
2022-12-17T19:32:24.844Z,0.20
2022-12-17T19:34:51.960Z,0.30
2022-12-17T19:37:20.695Z,0.40
2022-12-17T19:39:50.674Z,0.40
2022-12-17T19:42:44.536Z,0.40
2022-12-17T19:45:11.894Z,0.50
2022-12-17T19:47:40.640Z,0.60
2022-12-17T19:50:08.255Z,0.60
2022-12-17T19:52:36.201Z,0.60
2022-12-17T19:55:04.703Z,0.40
2022-12-17T19:57:35.013Z,0.30
2022-12-17T20:00:04.545Z,0.40
2022-12-17T20:02:42.767Z,0.30
2022-12-17T20:05:10.101Z,0.30
2022-12-17T20:07:40.232Z,0.40
2022-12-17T20:10:11.902Z,0.40
2022-12-17T20:12:44.846Z,0.40
2022-12-17T20:15:11.867Z,0.50
2022-12-17T20:17:39.787Z,0.50
2022-12-17T20:20:08.434Z,0.50
2022-12-17T20:22:35.495Z,0.40
2022-12-17T20:25:08.865Z,0.30
2022-12-17T20:27:37.392Z,0.30
2022-12-17T20:30:05.817Z,0.20
2022-12-17T20:32:33.764Z,0.10
2022-12-17T20:35:02.828Z,0.00
2022-12-17T20:37:29.936Z,0.00
2022-12-17T20:39:57.808Z,-0.10
2022-12-17T20:42:26.795Z,0.00
2022-12-17T20:44:55.856Z,0.10
2022-12-17T20:47:23.031Z,0.10
2022-12-17T20:49:49.958Z,0.10
2022-12-17T20:52:17.141Z,0.00
2022-12-17T20:54:44.144Z,0.00
2022-12-17T20:57:13.585Z,0.10
2022-12-17T20:59:41.509Z,0.20
2022-12-17T21:02:13.164Z,0.10
2022-12-17T21:04:41.706Z,0.20
2022-12-17T21:07:09.650Z,0.20
2022-12-17T21:09:38.311Z,0.20
2022-12-17T21:12:06.025Z,0.30
2022-12-17T21:14:35.989Z,0.30
2022-12-17T21:17:03.236Z,0.20
2022-12-17T21:19:32.389Z,0.20
2022-12-17T21:22:00.375Z,0.20
2022-12-17T21:24:29.376Z,0.30
2022-12-17T21:26:59.648Z,0.50
2022-12-17T21:29:28.342Z,0.40
2022-12-17T21:31:56.471Z,0.40
2022-12-17T21:34:26.030Z,0.20
2022-12-17T21:36:54.647Z,0.20
2022-12-17T21:39:22.636Z,0.20
2022-12-17T21:42:12.042Z,0.10
2022-12-17T21:44:39.008Z,0.20
2022-12-17T21:47:06.467Z,0.10
2022-12-17T21:49:33.532Z,0.20
2022-12-17T21:52:01.618Z,0.20
2022-12-17T21:54:29.752Z,0.20
2022-12-17T21:57:00.242Z,0.20
2022-12-17T21:59:43.449Z,0.20
2022-12-17T22:05:17.721Z,0.20
2022-12-17T22:07:48.903Z,0.10
2022-12-17T22:10:47.160Z,0.10
2022-12-17T22:13:48.331Z,0.10
2022-12-17T22:16:20.152Z,0.10
2022-12-17T22:18:48.871Z,-0.10
2022-12-17T22:21:15.729Z,-0.10
2022-12-17T22:23:58.073Z,-0.20
2022-12-17T22:26:28.835Z,-0.20
2022-12-17T22:29:00.935Z,-0.30
2022-12-17T22:32:04.012Z,-0.30
2022-12-17T22:35:49.912Z,-0.20
2022-12-17T22:40:37.381Z,-0.10
2022-12-17T22:44:30.915Z,-0.10
2022-12-17T22:44:37.717Z,0.00
2022-12-17T22:46:25.929Z,0.00
2022-12-17T22:49:15.397Z,-0.20
2022-12-17T22:51:45.614Z,-0.10
2022-12-17T22:54:13.922Z,-0.10
2022-12-17T22:57:19.134Z,-0.10
2022-12-17T22:59:30.507Z,-0.10
2022-12-17T23:01:58.553Z,0.00
2022-12-17T23:04:26.238Z,-0.10
2022-12-17T23:06:54.352Z,-0.10
2022-12-17T23:09:26.521Z,-0.10
2022-12-17T23:11:54.959Z,-0.20
2022-12-17T23:14:23.071Z,-0.10
2022-12-17T23:16:52.676Z,-0.20
2022-12-17T23:19:20.143Z,-0.20
2022-12-17T23:21:47.216Z,-0.20
2022-12-17T23:24:15.744Z,-0.30
2022-12-17T23:26:42.838Z,-0.30
2022-12-17T23:29:19.437Z,-0.30
2022-12-17T23:31:48.217Z,-0.40
2022-12-17T23:34:18.552Z,-0.40
2022-12-17T23:36:45.637Z,-0.40
2022-12-17T23:39:16.034Z,-0.50
2022-12-17T23:41:45.096Z,-0.70
2022-12-17T23:44:13.188Z,-0.70
2022-12-17T23:46:42.937Z,-0.60
2022-12-17T23:49:15.606Z,-0.60
2022-12-17T23:51:43.741Z,-0.60
2022-12-17T23:54:11.764Z,-0.60
2022-12-17T23:56:40.521Z,-0.60
2022-12-17T23:59:10.469Z,-0.50
